MMCU/CUU METAR and TAF weather

Enter ICAO airport designator
Station Type Date Time Source
MMCU METAR 2021/03/04 20:40 UTC NOAA

MMCU 042040Z 26020KT 10SM BKN200 27/M06 A3003 RMK SLP081 57031 959 8/002


Station Type Date Time Source
MMCU Decoded METAR 2021/03/04 20:40 UTC NOAA

Chihuahua International Airport, Mexico (MMCU) 28-42N 105-58W
Mar 04, 2021 - 03:40 PM EST / 2021.03.04 2040 UTC
Wind: from the W (260 degrees) at 23 MPH (20 KT):0
Visibility: 10 mile(s):0
Sky conditions: mostly cloudy
Temperature: 80 F (27 C)
Dew Point: 21 F (-6 C)
Relative Humidity: 10%
Pressure (altimeter): 30.03 in. Hg (1016 hPa)
Pressure tendency: 0.09 inches (3.1 hPa) lower than three hours ago
ob: MMCU 042040Z 26020KT 10SM BKN200 27/M06 A3003 RMK SLP081 57031 959 8/002
cycle: 20

Station Type Date Time Source
MMCU TAF 2021/03/04 18:18 UTC NOAA

TAF MMCU 041711Z 0418/0518 23015G25KT P6SM BKN200
FM050300 30015KT P6SM BKN200
BECMG 0505/0506 01010KT
FM051600 02015KT P6SM BKN200

Example: see airport list